createdAt,value
2022-11-14T00:00:54.253Z,100909.13
2022-11-14T00:03:20.787Z,100870.38
2022-11-14T00:05:47.719Z,100885.22
2022-11-14T00:08:23.342Z,100891.34
2022-11-14T00:10:50.751Z,100912.28
2022-11-14T00:13:19.066Z,100896.72
2022-11-14T00:15:50.185Z,100902.03
2022-11-14T00:18:17.413Z,100904.97
2022-11-14T00:20:43.965Z,100895.53
2022-11-14T00:23:10.461Z,100902.03
2022-11-14T00:25:36.884Z,100854.88
2022-11-14T00:28:03.368Z,100887.22
2022-11-14T00:30:30.018Z,100876.22
2022-11-14T00:32:56.433Z,100898.63
2022-11-14T00:35:23.405Z,100903.13
2022-11-14T00:37:50.211Z,100899.53
2022-11-14T00:40:16.892Z,100898.88
2022-11-14T00:42:43.613Z,100900.88
2022-11-14T00:45:10.770Z,100892.88
2022-11-14T00:47:37.402Z,100880.13
2022-11-14T00:50:04.746Z,100839.84
2022-11-14T00:52:31.246Z,100878.69
2022-11-14T00:54:57.695Z,100871.56
2022-11-14T00:57:24.219Z,100872.13
2022-11-14T01:00:54.341Z,100877.34
2022-11-14T01:03:20.815Z,100872.00
2022-11-14T01:05:49.386Z,100857.75
2022-11-14T01:08:17.452Z,100882.63
2022-11-14T01:10:46.332Z,100863.63
2022-11-14T01:13:13.786Z,100865.56
2022-11-14T01:15:41.474Z,100853.03
2022-11-14T01:18:10.179Z,100850.31
2022-11-14T01:20:41.679Z,100808.41
2022-11-14T01:23:12.337Z,100841.56
2022-11-14T01:25:40.051Z,100784.88
2022-11-14T01:28:08.167Z,100834.63
2022-11-14T01:30:34.776Z,100823.34
2022-11-14T01:33:01.669Z,100770.03
2022-11-14T01:35:28.347Z,100824.19
2022-11-14T01:37:55.017Z,100794.50
2022-11-14T01:40:21.468Z,100812.28
2022-11-14T01:43:18.986Z,100800.94
2022-11-14T01:46:06.256Z,100809.28
2022-11-14T01:48:45.556Z,100798.13
2022-11-14T01:51:17.920Z,100802.81
2022-11-14T01:53:46.022Z,100807.72
2022-11-14T01:56:15.333Z,100765.16
2022-11-14T01:58:45.199Z,100794.38
2022-11-14T02:01:11.676Z,100789.72
2022-11-14T02:03:40.435Z,100796.38
2022-11-14T02:06:09.561Z,100761.75
2022-11-14T02:08:36.744Z,100783.38
2022-11-14T02:11:03.206Z,100740.81
2022-11-14T02:13:29.705Z,100779.13
2022-11-14T02:15:56.148Z,100740.19
2022-11-14T02:18:22.659Z,100763.56
2022-11-14T02:20:49.110Z,100737.22
2022-11-14T02:23:25.745Z,100766.84
2022-11-14T02:25:52.406Z,100771.50
2022-11-14T02:28:20.626Z,100762.34
2022-11-14T02:30:47.413Z,100761.75
2022-11-14T02:33:14.342Z,100766.63
2022-11-14T02:35:41.311Z,100721.53
2022-11-14T02:38:07.960Z,100752.44
2022-11-14T02:40:34.503Z,100743.22
2022-11-14T02:43:01.060Z,100765.56
2022-11-14T02:45:27.506Z,100707.78
2022-11-14T02:47:53.944Z,100758.69
2022-11-14T02:50:20.453Z,100751.50
2022-11-14T02:52:46.987Z,100730.97
2022-11-14T02:55:13.418Z,100619.38
2022-11-14T02:57:39.892Z,100746.94
2022-11-14T03:00:13.360Z,100736.66
2022-11-14T03:02:41.216Z,100738.38
2022-11-14T03:05:07.871Z,100699.31
2022-11-14T03:07:34.460Z,100746.84
2022-11-14T03:10:00.919Z,100710.97
2022-11-14T03:12:27.652Z,100754.56
2022-11-14T03:14:54.087Z,100746.72
2022-11-14T03:17:20.533Z,100740.47
2022-11-14T03:19:46.939Z,100730.56
2022-11-14T03:22:13.383Z,100704.19
2022-11-14T03:24:39.855Z,100731.69
2022-11-14T03:27:06.348Z,100741.00
2022-11-14T03:29:32.856Z,100733.94
2022-11-14T03:31:59.304Z,100732.44
2022-11-14T03:34:25.729Z,100677.81
2022-11-14T03:36:52.154Z,100699.47
2022-11-14T03:39:18.620Z,100714.97
2022-11-14T03:41:45.368Z,100724.91
2022-11-14T03:44:11.787Z,100684.56
2022-11-14T03:46:38.235Z,100730.19
2022-11-14T03:49:04.688Z,100696.13
2022-11-14T03:51:31.260Z,100707.25
2022-11-14T03:53:58.161Z,100726.09
2022-11-14T03:56:24.631Z,100678.56
2022-11-14T03:58:51.077Z,100683.75
2022-11-14T04:01:17.651Z,100719.41
2022-11-14T04:03:44.328Z,100699.09
2022-11-14T04:06:10.969Z,100680.56
2022-11-14T04:08:40.393Z,100672.00
2022-11-14T04:11:07.777Z,100688.38
2022-11-14T04:13:34.294Z,100672.00
2022-11-14T04:16:00.777Z,100678.34
2022-11-14T04:18:27.673Z,100703.34
2022-11-14T04:20:54.431Z,100640.59
2022-11-14T04:23:20.894Z,100659.28
2022-11-14T04:25:47.610Z,100658.66
2022-11-14T04:28:14.448Z,100689.94
2022-11-14T04:30:41.347Z,100664.69
2022-11-14T04:33:07.879Z,100649.28
2022-11-14T04:35:34.400Z,100688.06
2022-11-14T04:38:00.892Z,100642.91
2022-11-14T04:40:27.326Z,100682.97
2022-11-14T04:42:53.777Z,100693.19
2022-11-14T04:45:20.278Z,100688.91
2022-11-14T04:47:46.765Z,100656.22
2022-11-14T04:50:13.499Z,100699.22
2022-11-14T04:52:39.925Z,100628.50
2022-11-14T04:55:06.582Z,100639.31
2022-11-14T04:57:33.056Z,100685.59
2022-11-14T04:59:59.507Z,100664.78
2022-11-14T05:02:25.959Z,100630.31
2022-11-14T05:04:52.389Z,100683.56
2022-11-14T05:07:18.941Z,100681.50
2022-11-14T05:09:45.488Z,100676.84
2022-11-14T05:12:11.948Z,100684.03
2022-11-14T05:14:38.463Z,100673.56
2022-11-14T05:17:04.990Z,100662.97
2022-11-14T05:19:31.448Z,100644.69
2022-11-14T05:21:58.073Z,100642.22
2022-11-14T05:24:24.788Z,100622.81
2022-11-14T05:26:51.229Z,100665.63
2022-11-14T05:29:17.814Z,100664.25
2022-11-14T05:31:44.254Z,100670.06
2022-11-14T05:34:10.700Z,100632.22
2022-11-14T05:36:37.248Z,100646.41
2022-11-14T05:39:03.813Z,100664.03
2022-11-14T05:41:30.326Z,100664.78
2022-11-14T05:43:56.751Z,100661.41
2022-11-14T05:46:23.304Z,100656.34
2022-11-14T05:48:50.244Z,100652.97
2022-11-14T05:51:16.777Z,100661.50
2022-11-14T05:53:43.235Z,100636.66
2022-11-14T05:56:12.126Z,100657.28
2022-11-14T05:58:38.985Z,100659.66
2022-11-14T06:01:16.954Z,100660.78
2022-11-14T06:03:45.949Z,100656.72
2022-11-14T06:06:14.863Z,100666.91
2022-11-14T06:08:42.023Z,100669.31
2022-11-14T06:11:11.022Z,100663.19
2022-11-14T06:13:37.752Z,100610.91
2022-11-14T06:16:11.476Z,100639.47
2022-11-14T06:18:38.710Z,100657.19
2022-11-14T06:21:18.063Z,100656.75
2022-11-14T06:23:45.190Z,100654.91
2022-11-14T06:26:31.231Z,100665.28
2022-11-14T06:28:58.861Z,100668.09
2022-11-14T06:31:26.133Z,100626.63
2022-11-14T06:33:52.753Z,100661.97
2022-11-14T06:36:19.364Z,100666.06
2022-11-14T06:38:45.854Z,100641.44
2022-11-14T06:41:14.441Z,100617.75
2022-11-14T06:43:43.056Z,100643.91
2022-11-14T06:46:13.631Z,100656.84
2022-11-14T06:48:40.805Z,100651.78
2022-11-14T06:51:08.026Z,100651.59
2022-11-14T06:53:35.652Z,100653.72
2022-11-14T06:56:04.529Z,100651.41
2022-11-14T06:58:33.595Z,100651.44
2022-11-14T07:01:23.569Z,100629.84
2022-11-14T07:03:50.307Z,100664.38
2022-11-14T07:06:19.197Z,100659.19
2022-11-14T07:08:46.199Z,100652.63
2022-11-14T07:11:23.781Z,100659.09
2022-11-14T07:13:52.716Z,100647.56
2022-11-14T07:16:20.395Z,100654.47
2022-11-14T07:18:46.879Z,100652.16
2022-11-14T07:21:13.747Z,100638.94
2022-11-14T07:23:40.408Z,100620.84
2022-11-14T07:26:08.731Z,100634.69
2022-11-14T07:28:36.738Z,100646.41
2022-11-14T07:31:04.498Z,100639.03
2022-11-14T07:33:31.675Z,100616.00
2022-11-14T07:35:58.134Z,100638.22
2022-11-14T07:38:24.598Z,100618.53
2022-11-14T07:41:00.118Z,100636.91
2022-11-14T07:43:27.876Z,100637.78
2022-11-14T07:45:56.326Z,100628.69
2022-11-14T07:48:23.553Z,100634.19
2022-11-14T07:50:50.057Z,100629.00
2022-11-14T07:53:17.795Z,100635.44
2022-11-14T07:55:44.250Z,100614.22
2022-11-14T07:58:10.770Z,100631.50
2022-11-14T08:00:37.299Z,100627.25
2022-11-14T08:03:03.848Z,100569.81
2022-11-14T08:05:30.289Z,100633.72
2022-11-14T08:07:56.864Z,100629.88
2022-11-14T08:10:23.428Z,100620.31
2022-11-14T08:13:17.607Z,100615.47
2022-11-14T08:15:45.094Z,100610.97
2022-11-14T08:18:11.685Z,100618.13
2022-11-14T08:20:38.150Z,100611.97
2022-11-14T08:23:06.991Z,100601.50
2022-11-14T08:25:33.784Z,100609.84
2022-11-14T08:28:00.507Z,100607.13
2022-11-14T08:30:27.357Z,100594.47
2022-11-14T08:32:54.067Z,100606.00
2022-11-14T08:35:25.661Z,100595.72
2022-11-14T08:37:52.186Z,100595.06
2022-11-14T08:40:18.629Z,100607.00
2022-11-14T08:42:45.107Z,100584.81
2022-11-14T08:45:11.643Z,100600.69
2022-11-14T08:47:38.184Z,100606.47
2022-11-14T08:50:05.158Z,100565.66
2022-11-14T08:52:31.727Z,100623.63
2022-11-14T08:54:58.205Z,100619.09
2022-11-14T08:57:24.630Z,100629.81
2022-11-14T08:59:51.150Z,100629.16
2022-11-14T09:02:18.424Z,100611.41
2022-11-14T09:04:44.998Z,100633.34
2022-11-14T09:07:11.580Z,100610.00
2022-11-14T09:09:38.167Z,100632.53
2022-11-14T09:12:05.017Z,100634.13
2022-11-14T09:14:31.479Z,100623.31
2022-11-14T09:17:03.152Z,100602.72
2022-11-14T09:19:32.064Z,100596.09
2022-11-14T09:21:58.475Z,100589.91
2022-11-14T09:24:24.998Z,100591.91
2022-11-14T09:26:56.556Z,100594.78
2022-11-14T09:29:23.543Z,100576.03
2022-11-14T09:31:51.770Z,100574.16
2022-11-14T09:34:18.304Z,100579.59
2022-11-14T09:36:44.876Z,100565.94
2022-11-14T09:39:11.288Z,100556.25
2022-11-14T09:42:17.477Z,100581.28
2022-11-14T09:44:56.097Z,100564.66
2022-11-14T09:47:37.643Z,100559.19
2022-11-14T09:50:12.724Z,100565.38
2022-11-14T09:52:48.648Z,100540.59
2022-11-14T09:55:44.534Z,100554.84
2022-11-14T09:58:19.560Z,100544.94
2022-11-14T10:01:06.389Z,100548.78
2022-11-14T10:03:38.320Z,100552.59
2022-11-14T10:06:28.236Z,100563.00
2022-11-14T10:09:13.091Z,100557.19
2022-11-14T10:11:44.028Z,100555.59
2022-11-14T10:14:26.870Z,100569.59
2022-11-14T10:17:15.407Z,100581.72
2022-11-14T10:20:05.413Z,100561.50
2022-11-14T10:22:50.033Z,100592.41
2022-11-14T10:25:16.466Z,100584.22
2022-11-14T10:27:54.077Z,100581.88
2022-11-14T10:30:22.450Z,100583.38
2022-11-14T10:32:57.836Z,100611.28
2022-11-14T10:35:34.993Z,100606.53
2022-11-14T10:38:04.655Z,100604.56
2022-11-14T10:40:39.264Z,100607.97
2022-11-14T10:43:16.546Z,100604.31
2022-11-14T10:45:46.989Z,100600.50
2022-11-14T10:48:17.412Z,100601.19
2022-11-14T10:50:55.100Z,100584.00
2022-11-14T10:53:25.293Z,100575.47
2022-11-14T10:56:08.718Z,100533.56
2022-11-14T10:58:47.928Z,100562.16
2022-11-14T11:01:38.196Z,100573.44
2022-11-14T11:04:18.079Z,100570.69
2022-11-14T11:06:44.685Z,100529.63
2022-11-14T11:09:44.905Z,100550.50
2022-11-14T11:12:18.020Z,100540.69
2022-11-14T11:14:46.076Z,100503.59
2022-11-14T11:17:12.542Z,100507.56
2022-11-14T11:19:39.805Z,100497.84
2022-11-14T11:22:25.001Z,100496.00
2022-11-14T11:24:51.461Z,100462.88
2022-11-14T11:27:29.114Z,100492.56
2022-11-14T11:30:28.275Z,100470.72
2022-11-14T11:32:55.145Z,100466.38
2022-11-14T11:35:21.662Z,100440.06
2022-11-14T11:37:56.308Z,100463.00
2022-11-14T11:40:25.708Z,100466.97
2022-11-14T11:45:47.319Z,100456.84
2022-11-14T11:48:18.170Z,100459.09
2022-11-14T11:50:44.715Z,100439.31
2022-11-14T11:53:20.040Z,100449.78
2022-11-14T11:55:51.038Z,100455.34
2022-11-14T11:58:30.928Z,100451.97
2022-11-14T12:00:57.979Z,100460.66
2022-11-14T12:03:25.766Z,100445.66
2022-11-14T12:08:54.068Z,100458.63
2022-11-14T12:11:22.816Z,100415.75
2022-11-14T12:14:05.418Z,100447.69
2022-11-14T12:17:13.260Z,100409.72
2022-11-14T12:19:45.673Z,100440.47
2022-11-14T12:22:49.856Z,100439.19
2022-11-14T12:25:28.528Z,100460.34
2022-11-14T12:28:10.535Z,100412.00
2022-11-14T12:30:37.864Z,100437.50
2022-11-14T12:33:08.229Z,100439.44
2022-11-14T12:35:36.253Z,100488.53
2022-11-14T12:38:14.806Z,100479.22
2022-11-14T12:40:48.408Z,100476.03
2022-11-14T12:43:38.333Z,100475.34
2022-11-14T12:46:13.068Z,100490.19
2022-11-14T12:48:44.899Z,100472.41
2022-11-14T12:51:27.355Z,100477.03
2022-11-14T12:53:55.529Z,100482.44
2022-11-14T12:56:31.037Z,100473.28
2022-11-14T12:59:22.002Z,100465.13
2022-11-14T13:01:52.486Z,100457.41
2022-11-14T13:04:56.383Z,100450.72
2022-11-14T13:07:34.548Z,100436.75
2022-11-14T13:10:04.098Z,100429.38
2022-11-14T13:12:53.869Z,100427.06
2022-11-14T13:15:47.415Z,100428.69
2022-11-14T13:18:36.698Z,100426.59
2022-11-14T13:21:35.549Z,100396.59
2022-11-14T13:24:02.364Z,100416.19
2022-11-14T13:26:31.902Z,100427.00
2022-11-14T13:28:59.859Z,100415.41
2022-11-14T13:31:38.433Z,100416.56
2022-11-14T13:34:43.893Z,100413.75
2022-11-14T13:37:38.459Z,100401.97
2022-11-14T13:40:16.236Z,100400.13
2022-11-14T13:42:51.747Z,100394.47
2022-11-14T13:45:30.161Z,100340.19
2022-11-14T13:48:17.733Z,100374.78
2022-11-14T13:50:48.209Z,100376.91
2022-11-14T13:53:19.136Z,100377.25
2022-11-14T13:56:07.389Z,100376.16
2022-11-14T13:59:03.256Z,100366.44
2022-11-14T14:01:29.769Z,100384.44
2022-11-14T14:04:27.177Z,100382.09
2022-11-14T14:07:11.999Z,100384.81
2022-11-14T14:09:54.260Z,100384.91
2022-11-14T14:12:34.629Z,100354.16
2022-11-14T14:15:09.820Z,100390.81
2022-11-14T14:17:40.541Z,100392.03
2022-11-14T14:20:16.978Z,100406.13
2022-11-14T14:22:49.656Z,100387.59
2022-11-14T14:25:24.791Z,100363.75
2022-11-14T14:28:21.334Z,100349.59
2022-11-14T14:31:12.850Z,100376.16
2022-11-14T14:33:46.535Z,100329.88
2022-11-14T14:36:26.982Z,100356.31
2022-11-14T14:39:16.871Z,100355.75
2022-11-14T14:41:43.601Z,100359.00
2022-11-14T14:44:23.085Z,100361.16
2022-11-14T14:46:49.910Z,100341.94
2022-11-14T14:49:36.659Z,100366.00
2022-11-14T14:52:22.309Z,100362.06
2022-11-14T14:54:56.133Z,100367.56
2022-11-14T14:57:23.605Z,100345.06
2022-11-14T14:59:59.953Z,100358.97
2022-11-14T15:02:26.685Z,100316.72
2022-11-14T15:04:53.325Z,100366.28
2022-11-14T15:07:25.295Z,100383.81
2022-11-14T15:09:59.981Z,100381.56
2022-11-14T15:12:29.018Z,100373.47
2022-11-14T15:14:56.077Z,100370.56
2022-11-14T15:17:23.033Z,100345.00
2022-11-14T15:19:52.397Z,100329.00
2022-11-14T15:22:18.857Z,100361.75
2022-11-14T15:25:04.889Z,100326.28
2022-11-14T15:27:33.188Z,100334.78
2022-11-14T15:30:06.294Z,100371.97
2022-11-14T15:32:33.643Z,100375.22
2022-11-14T15:35:08.937Z,100371.19
2022-11-14T15:37:35.484Z,100323.00
2022-11-14T15:40:20.120Z,100373.06
2022-11-14T15:42:47.066Z,100368.69
2022-11-14T15:45:28.210Z,100360.53
2022-11-14T15:48:04.818Z,100324.66
2022-11-14T15:50:33.293Z,100328.88
2022-11-14T15:53:15.679Z,100365.13
2022-11-14T15:55:42.252Z,100315.16
2022-11-14T15:58:29.273Z,100375.03
2022-11-14T16:00:56.404Z,100359.72
2022-11-14T16:03:23.222Z,100334.47
2022-11-14T16:05:49.678Z,100349.63
2022-11-14T16:08:16.182Z,100353.53
2022-11-14T16:10:42.582Z,100344.03
2022-11-14T16:13:10.966Z,100343.31
2022-11-14T16:15:37.452Z,100292.13
2022-11-14T16:18:05.315Z,100310.69
2022-11-14T16:20:37.129Z,100294.84
2022-11-14T16:23:04.919Z,100324.56
2022-11-14T16:25:32.051Z,100310.50
2022-11-14T16:27:58.507Z,100310.97
2022-11-14T16:30:26.003Z,100318.50
2022-11-14T16:32:52.727Z,100317.47
2022-11-14T16:35:20.540Z,100257.38
2022-11-14T16:37:47.746Z,100316.13
2022-11-14T16:40:23.338Z,100258.84
2022-11-14T16:42:50.145Z,100260.06
2022-11-14T16:45:17.619Z,100316.50
2022-11-14T16:47:44.710Z,100307.34
2022-11-14T16:50:11.321Z,100279.53
2022-11-14T16:52:39.236Z,100284.63
2022-11-14T16:55:10.978Z,100302.00
2022-11-14T16:57:37.938Z,100296.03
2022-11-14T17:00:05.871Z,100296.59
2022-11-14T17:02:32.372Z,100290.78
2022-11-14T17:04:58.933Z,100277.53
2022-11-14T17:07:25.488Z,100283.19
2022-11-14T17:09:52.210Z,100277.63
2022-11-14T17:12:18.660Z,100288.28
2022-11-14T17:14:45.094Z,100271.25
2022-11-14T17:17:11.552Z,100240.69
2022-11-14T17:19:45.538Z,100264.44
2022-11-14T17:22:13.429Z,100267.75
2022-11-14T17:24:40.330Z,100271.16
2022-11-14T17:27:07.480Z,100266.69
2022-11-14T17:29:34.302Z,100270.72
2022-11-14T17:32:01.141Z,100263.56
2022-11-14T17:34:28.019Z,100276.00
2022-11-14T17:36:54.492Z,100264.69
2022-11-14T17:39:21.005Z,100258.56
2022-11-14T17:41:47.522Z,100223.25
2022-11-14T17:44:13.998Z,100222.75
2022-11-14T17:46:41.242Z,100228.94
2022-11-14T17:49:07.706Z,100261.16
2022-11-14T17:51:34.245Z,100262.78
2022-11-14T17:54:00.710Z,100245.59
2022-11-14T17:56:27.476Z,100252.69
2022-11-14T17:58:54.134Z,100261.81
2022-11-14T18:01:23.196Z,100260.88
2022-11-14T18:03:50.348Z,100262.66
2022-11-14T18:06:19.339Z,100262.66
2022-11-14T18:08:46.012Z,100253.25
2022-11-14T18:11:14.077Z,100242.00
2022-11-14T18:13:41.204Z,100219.75
2022-11-14T18:16:14.784Z,100266.69
2022-11-14T18:18:41.266Z,100224.53
2022-11-14T18:21:18.730Z,100240.34
2022-11-14T18:23:50.530Z,100238.34
2022-11-14T18:26:18.068Z,100262.44
2022-11-14T18:28:44.819Z,100253.81
2022-11-14T18:31:11.997Z,100263.66
2022-11-14T18:33:39.752Z,100214.91
2022-11-14T18:36:10.602Z,100262.78
2022-11-14T18:38:37.082Z,100258.41
2022-11-14T18:41:07.681Z,100259.22
2022-11-14T18:43:34.560Z,100206.22
2022-11-14T18:46:08.491Z,100240.63
2022-11-14T18:48:36.370Z,100251.13
2022-11-14T18:51:08.059Z,100246.53
2022-11-14T18:53:35.820Z,100209.41
2022-11-14T18:56:06.927Z,100243.28
2022-11-14T18:58:33.731Z,100241.06
2022-11-14T19:01:10.678Z,100217.53
2022-11-14T19:03:37.184Z,100238.81
2022-11-14T19:06:05.385Z,100234.31
2022-11-14T19:08:32.240Z,100201.41
2022-11-14T19:11:07.433Z,100240.47
2022-11-14T19:13:34.335Z,100238.91
2022-11-14T19:16:02.419Z,100239.03
2022-11-14T19:18:29.352Z,100240.44
2022-11-14T19:21:00.494Z,100191.34
2022-11-14T19:23:28.809Z,100236.88
2022-11-14T19:25:59.839Z,100243.16
2022-11-14T19:28:27.544Z,100200.50
2022-11-14T19:30:54.132Z,100226.94
2022-11-14T19:33:20.902Z,100236.19
2022-11-14T19:35:50.080Z,100238.13
2022-11-14T19:38:16.584Z,100215.59
2022-11-14T19:40:43.067Z,100237.97
2022-11-14T19:43:11.395Z,100250.38
2022-11-14T19:45:37.876Z,100251.84
2022-11-14T19:48:05.483Z,100213.19
2022-11-14T19:50:32.001Z,100253.13
2022-11-14T19:52:58.539Z,100199.03
2022-11-14T19:55:25.110Z,100251.00
2022-11-14T19:57:51.614Z,100227.19
2022-11-14T20:00:18.387Z,100253.25
2022-11-14T20:02:47.847Z,100259.59
2022-11-14T20:05:14.453Z,100257.75
2022-11-14T20:07:40.937Z,100261.88
2022-11-14T20:10:08.038Z,100261.47
2022-11-14T20:12:34.738Z,100261.59
2022-11-14T20:15:01.393Z,100213.66
2022-11-14T20:17:27.925Z,100228.72
2022-11-14T20:19:54.416Z,100264.16
2022-11-14T20:22:21.035Z,100236.19
2022-11-14T20:24:47.598Z,100268.88
2022-11-14T20:27:14.723Z,100267.56
2022-11-14T20:29:41.287Z,100234.91
2022-11-14T20:32:10.454Z,100251.72
2022-11-14T20:34:41.046Z,100277.75
2022-11-14T20:37:11.996Z,100236.16
2022-11-14T20:39:38.697Z,100283.81
2022-11-14T20:42:05.243Z,100257.81
2022-11-14T20:44:31.861Z,100274.06
2022-11-14T20:46:58.386Z,100297.59
2022-11-14T20:49:24.949Z,100244.16
2022-11-14T20:51:51.658Z,100283.53
2022-11-14T20:54:18.157Z,100283.69
2022-11-14T20:56:44.705Z,100292.88
2022-11-14T20:59:11.280Z,100271.84
2022-11-14T21:01:43.652Z,100284.53
2022-11-14T21:04:10.750Z,100293.16
2022-11-14T21:06:37.410Z,100261.91
2022-11-14T21:09:03.891Z,100255.53
2022-11-14T21:11:30.456Z,100294.44
2022-11-14T21:13:58.732Z,100279.13
2022-11-14T21:16:26.877Z,100290.75
2022-11-14T21:18:54.640Z,100296.91
2022-11-14T21:21:23.655Z,100292.22
2022-11-14T21:23:50.909Z,100297.09
2022-11-14T21:26:20.834Z,100295.22
2022-11-14T21:28:49.117Z,100283.75
2022-11-14T21:31:18.608Z,100276.03
2022-11-14T21:33:45.792Z,100284.56
2022-11-14T21:36:43.308Z,100278.16
2022-11-14T21:39:00.518Z,100279.72
2022-11-14T21:41:28.597Z,100264.59
2022-11-14T21:43:57.183Z,100259.69
2022-11-14T21:46:24.321Z,100281.66
2022-11-14T21:48:51.501Z,100283.47
2022-11-14T21:51:19.253Z,100283.63
2022-11-14T21:53:47.038Z,100279.50
2022-11-14T21:56:18.837Z,100282.63
2022-11-14T21:58:45.532Z,100278.31
2022-11-14T22:01:37.765Z,100284.19
2022-11-14T22:04:13.840Z,100229.75
2022-11-14T22:06:42.482Z,100270.34
2022-11-14T22:09:09.638Z,100276.78
2022-11-14T22:11:39.094Z,100256.22
2022-11-14T22:14:06.343Z,100268.53
2022-11-14T22:16:33.396Z,100250.19
2022-11-14T22:19:04.923Z,100231.13
2022-11-14T22:21:32.212Z,100229.84
2022-11-14T22:23:58.760Z,100253.72
2022-11-14T22:26:25.326Z,100208.75
2022-11-14T22:28:51.786Z,100255.72
2022-11-14T22:31:20.217Z,100254.66
2022-11-14T22:33:48.286Z,100253.69
2022-11-14T22:36:17.292Z,100263.78
2022-11-14T22:38:44.597Z,100260.81
2022-11-14T22:41:30.673Z,100254.81
2022-11-14T22:43:58.369Z,100261.81
2022-11-14T22:46:25.121Z,100232.91
2022-11-14T22:48:51.533Z,100255.88
2022-11-14T22:51:23.078Z,100259.16
2022-11-14T22:53:54.712Z,100262.13
2022-11-14T22:56:23.438Z,100263.41
2022-11-14T22:58:50.203Z,100258.97
2022-11-14T23:01:20.857Z,100259.47
2022-11-14T23:03:48.198Z,100259.38
2022-11-14T23:06:16.827Z,100253.66
2022-11-14T23:08:43.670Z,100242.88
2022-11-14T23:11:15.385Z,100226.31
2022-11-14T23:13:44.425Z,100245.66
2022-11-14T23:16:12.890Z,100246.78
2022-11-14T23:18:39.755Z,100217.72
2022-11-14T23:21:08.062Z,100248.84
2022-11-14T23:23:34.581Z,100212.09
2022-11-14T23:26:13.137Z,100248.72
2022-11-14T23:28:40.213Z,100234.41
2022-11-14T23:31:07.474Z,100240.16
2022-11-14T23:33:34.787Z,100246.72
2022-11-14T23:36:01.841Z,100247.41
2022-11-14T23:38:30.837Z,100208.88
2022-11-14T23:40:59.084Z,100220.69
2022-11-14T23:43:26.018Z,100220.94
2022-11-14T23:45:52.842Z,100239.78
2022-11-14T23:48:20.411Z,100239.63
2022-11-14T23:50:51.631Z,100232.34
2022-11-14T23:53:18.505Z,100191.56
2022-11-14T23:55:58.824Z,100226.63
2022-11-14T23:58:26.293Z,100221.31
